createdAt,value
2022-11-28T00:00:53.353Z,0.50
2022-11-28T00:01:53.473Z,0.48
2022-11-28T00:02:53.423Z,0.51
2022-11-28T00:03:53.437Z,0.53
2022-11-28T00:04:53.375Z,0.53
2022-11-28T00:05:53.296Z,0.53
2022-11-28T00:06:53.298Z,0.55
2022-11-28T00:07:53.327Z,0.55
2022-11-28T00:08:53.342Z,0.55
2022-11-28T00:09:53.332Z,0.53
2022-11-28T00:10:53.237Z,0.51
2022-11-28T00:11:53.291Z,0.51
2022-11-28T00:12:53.216Z,0.47
2022-11-28T00:13:53.218Z,0.44
2022-11-28T00:14:53.237Z,0.44
2022-11-28T00:15:53.231Z,0.44
2022-11-28T00:16:53.220Z,0.43
2022-11-28T00:17:53.246Z,0.43
2022-11-28T00:18:53.180Z,0.45
2022-11-28T00:19:53.340Z,0.44
2022-11-28T00:20:53.161Z,0.43
2022-11-28T00:21:53.158Z,0.40
2022-11-28T00:22:53.138Z,0.40
2022-11-28T00:23:53.121Z,0.41
2022-11-28T00:24:53.540Z,0.41
2022-11-28T00:25:53.137Z,0.43
2022-11-28T00:26:53.151Z,0.43
2022-11-28T00:27:53.090Z,0.43
2022-11-28T00:28:53.079Z,0.43
2022-11-28T00:29:53.133Z,0.44
2022-11-28T00:30:53.120Z,0.43
2022-11-28T00:31:53.081Z,0.44
2022-11-28T00:32:53.059Z,0.45
2022-11-28T00:33:53.042Z,0.43
2022-11-28T00:34:52.996Z,0.41
2022-11-28T00:35:58.951Z,0.43
2022-11-28T00:36:54.098Z,0.43
2022-11-28T00:37:53.014Z,0.43
2022-11-28T00:38:52.955Z,0.44
2022-11-28T00:39:53.005Z,0.45
2022-11-28T00:40:52.927Z,0.47
2022-11-28T00:41:52.917Z,0.47
2022-11-28T00:42:52.907Z,0.47
2022-11-28T00:43:52.900Z,0.45
2022-11-28T00:44:52.961Z,0.47
2022-11-28T00:45:53.005Z,0.48
2022-11-28T00:46:52.985Z,0.48
2022-11-28T00:47:52.863Z,0.48
2022-11-28T00:48:52.845Z,0.47
2022-11-28T00:49:52.854Z,0.48
2022-11-28T00:50:52.861Z,0.48
2022-11-28T00:51:52.822Z,0.48
2022-11-28T00:52:52.916Z,0.48
2022-11-28T00:53:52.819Z,0.48
2022-11-28T00:54:52.801Z,0.47
2022-11-28T00:55:52.819Z,0.48
2022-11-28T00:56:52.784Z,0.45
2022-11-28T00:57:52.775Z,0.45
2022-11-28T00:58:52.764Z,0.45
2022-11-28T00:59:52.849Z,0.44
2022-11-28T01:00:52.782Z,0.44
2022-11-28T01:01:52.798Z,0.45
2022-11-28T01:02:52.716Z,0.44
2022-11-28T01:03:52.717Z,0.45
2022-11-28T01:04:52.723Z,0.45
2022-11-28T01:05:52.684Z,0.45
2022-11-28T01:06:52.688Z,0.45
2022-11-28T01:07:52.673Z,0.47
2022-11-28T01:08:52.774Z,0.45
2022-11-28T01:09:52.702Z,0.44
2022-11-28T01:10:52.655Z,0.45
2022-11-28T01:11:52.654Z,0.47
2022-11-28T01:12:52.627Z,0.45
2022-11-28T01:13:52.621Z,0.45
2022-11-28T01:14:52.622Z,0.45
2022-11-28T01:15:52.691Z,0.48
2022-11-28T01:16:57.569Z,0.48
2022-11-28T01:17:52.579Z,0.48
2022-11-28T01:18:52.557Z,0.48
2022-11-28T01:19:52.552Z,0.48
2022-11-28T01:20:52.522Z,0.50
2022-11-28T01:21:52.594Z,0.50
2022-11-28T01:22:52.580Z,0.51
2022-11-28T01:23:52.505Z,0.51
2022-11-28T01:24:52.698Z,0.51
2022-11-28T01:25:52.469Z,0.48
2022-11-28T01:26:52.465Z,0.50
2022-11-28T01:27:52.510Z,0.50
2022-11-28T01:28:52.476Z,0.53
2022-11-28T01:29:52.445Z,0.55
2022-11-28T01:30:52.439Z,0.56
2022-11-28T01:31:52.517Z,0.56
2022-11-28T01:32:52.402Z,0.60
2022-11-28T01:33:52.427Z,0.59
2022-11-28T01:34:52.395Z,0.60
2022-11-28T01:35:52.408Z,0.62
2022-11-28T01:36:52.392Z,0.63
2022-11-28T01:37:52.346Z,0.63
2022-11-28T01:38:52.377Z,0.63
2022-11-28T01:39:52.349Z,0.64
2022-11-28T01:40:52.431Z,0.67
2022-11-28T01:41:52.323Z,0.67
2022-11-28T01:42:52.295Z,0.67
2022-11-28T01:43:52.279Z,0.69
2022-11-28T01:44:52.288Z,0.70
2022-11-28T01:45:52.247Z,0.69
2022-11-28T01:46:52.320Z,0.70
2022-11-28T01:47:52.229Z,0.73
2022-11-28T01:48:52.229Z,0.76
2022-11-28T01:49:52.331Z,0.78
2022-11-28T01:50:52.210Z,0.78
2022-11-28T01:51:52.203Z,0.90
2022-11-28T01:52:52.207Z,0.94
2022-11-28T01:53:52.194Z,0.94
2022-11-28T01:54:52.178Z,0.96
2022-11-28T01:55:52.179Z,0.98
2022-11-28T01:56:52.282Z,0.98
2022-11-28T01:57:59.625Z,0.99
2022-11-28T01:58:52.119Z,0.99
2022-11-28T01:59:52.231Z,1.05
2022-11-28T02:00:52.161Z,1.06
2022-11-28T02:01:52.149Z,1.13
2022-11-28T02:02:52.082Z,1.20
2022-11-28T02:03:52.068Z,1.20
2022-11-28T02:04:52.067Z,1.20
2022-11-28T02:05:52.554Z,1.20
2022-11-28T02:06:52.047Z,1.18
2022-11-28T02:07:52.178Z,1.26
2022-11-28T02:08:52.045Z,1.31
2022-11-28T02:09:52.017Z,1.34
2022-11-28T02:10:52.094Z,1.34
2022-11-28T02:11:51.983Z,1.34
2022-11-28T02:12:52.104Z,1.35
2022-11-28T02:13:51.972Z,1.34
2022-11-28T02:14:51.947Z,1.36
2022-11-28T02:15:52.021Z,1.35
2022-11-28T02:16:52.042Z,1.38
2022-11-28T02:17:51.944Z,1.36
2022-11-28T02:18:51.914Z,1.35
2022-11-28T02:19:51.980Z,1.35
2022-11-28T02:20:51.891Z,1.31
2022-11-28T02:21:51.914Z,1.30
2022-11-28T02:22:51.917Z,1.27
2022-11-28T02:23:51.856Z,1.21
2022-11-28T02:24:51.911Z,1.21
2022-11-28T02:25:51.896Z,1.17
2022-11-28T02:26:51.855Z,1.12
2022-11-28T02:27:51.865Z,1.12
2022-11-28T02:28:51.953Z,1.06
2022-11-28T02:29:51.795Z,1.05
2022-11-28T02:30:51.831Z,1.08
2022-11-28T02:31:51.895Z,1.10
2022-11-28T02:32:51.894Z,1.12
2022-11-28T02:33:51.928Z,1.13
2022-11-28T02:34:52.309Z,1.17
2022-11-28T02:35:51.863Z,1.13
2022-11-28T02:36:51.794Z,1.13
2022-11-28T02:37:51.702Z,1.16
2022-11-28T02:38:51.725Z,1.16
2022-11-28T02:39:51.755Z,1.16
2022-11-28T02:40:51.695Z,1.17
2022-11-28T02:41:51.722Z,1.21
2022-11-28T02:42:51.667Z,1.24
2022-11-28T02:43:51.661Z,1.23
2022-11-28T02:44:51.810Z,1.23
2022-11-28T02:45:51.637Z,1.23
2022-11-28T02:46:51.693Z,1.26
2022-11-28T02:47:56.564Z,1.24
2022-11-28T02:48:51.595Z,1.24
2022-11-28T02:49:51.596Z,1.26
2022-11-28T02:50:51.628Z,1.27
2022-11-28T02:51:51.563Z,1.38
2022-11-28T02:52:51.584Z,1.48
2022-11-28T02:53:51.556Z,1.53
2022-11-28T02:54:51.526Z,1.55
2022-11-28T02:55:51.518Z,1.57
2022-11-28T02:56:51.537Z,1.57
2022-11-28T02:57:51.498Z,1.60
2022-11-28T02:58:51.504Z,1.62
2022-11-28T02:59:51.518Z,1.60
2022-11-28T03:00:51.648Z,1.59
2022-11-28T03:01:51.491Z,1.57
2022-11-28T03:02:51.445Z,1.55
2022-11-28T03:03:51.558Z,1.55
2022-11-28T03:04:51.425Z,1.53
2022-11-28T03:05:51.416Z,1.48
2022-11-28T03:06:51.510Z,1.49
2022-11-28T03:07:51.469Z,1.49
2022-11-28T03:08:51.422Z,1.48
2022-11-28T03:09:51.389Z,1.49
2022-11-28T03:10:51.380Z,1.48
2022-11-28T03:11:51.444Z,1.48
2022-11-28T03:12:51.407Z,1.48
2022-11-28T03:13:51.356Z,1.48
2022-11-28T03:14:51.337Z,1.48
2022-11-28T03:15:51.436Z,1.49
2022-11-28T03:16:51.410Z,1.48
2022-11-28T03:18:02.304Z,1.48
2022-11-28T03:18:51.326Z,1.46
2022-11-28T03:19:51.360Z,1.44
2022-11-28T03:20:51.262Z,1.44
2022-11-28T03:21:51.372Z,1.44
2022-11-28T03:22:51.258Z,1.45
2022-11-28T03:23:51.330Z,1.44
2022-11-28T03:24:51.215Z,1.49
2022-11-28T03:25:51.211Z,1.49
2022-11-28T03:26:51.240Z,1.55
2022-11-28T03:27:51.211Z,1.56
2022-11-28T03:28:51.243Z,1.59
2022-11-28T03:29:51.217Z,1.66
2022-11-28T03:30:51.171Z,1.66
2022-11-28T03:31:51.261Z,1.73
2022-11-28T03:32:51.240Z,1.73
2022-11-28T03:33:51.175Z,1.73
2022-11-28T03:34:51.129Z,1.77
2022-11-28T03:35:51.105Z,1.78
2022-11-28T03:36:51.124Z,1.78
2022-11-28T03:37:51.091Z,1.80
2022-11-28T03:38:51.113Z,1.81
2022-11-28T03:39:51.053Z,1.82
2022-11-28T03:40:51.040Z,1.84
2022-11-28T03:41:51.080Z,1.85
2022-11-28T03:42:51.035Z,1.85
2022-11-28T03:43:51.027Z,1.97
2022-11-28T03:44:51.023Z,2.10
2022-11-28T03:45:50.990Z,2.15
2022-11-28T03:46:51.096Z,2.18
2022-11-28T03:47:51.008Z,2.25
2022-11-28T03:48:51.135Z,2.25
2022-11-28T03:49:51.033Z,2.22
2022-11-28T03:50:50.973Z,2.21
2022-11-28T03:51:51.512Z,2.19
2022-11-28T03:52:50.917Z,2.25
2022-11-28T03:53:50.901Z,2.24
2022-11-28T03:54:50.900Z,2.25
2022-11-28T03:55:50.946Z,2.22
2022-11-28T03:56:50.902Z,2.25
2022-11-28T03:57:50.874Z,2.28
2022-11-28T03:58:50.887Z,2.29
2022-11-28T03:59:50.868Z,2.37
2022-11-28T04:00:50.865Z,2.37
2022-11-28T04:01:50.851Z,2.33
2022-11-28T04:02:50.842Z,2.35
2022-11-28T04:03:50.805Z,2.32
2022-11-28T04:04:50.903Z,2.29
2022-11-28T04:05:50.816Z,2.33
2022-11-28T04:06:50.793Z,2.33
2022-11-28T04:07:50.810Z,2.30
2022-11-28T04:08:50.765Z,2.28
2022-11-28T04:09:50.761Z,2.24
2022-11-28T04:10:50.752Z,2.21
2022-11-28T04:11:50.807Z,2.24
2022-11-28T04:12:50.715Z,2.21
2022-11-28T04:13:50.690Z,2.21
2022-11-28T04:14:50.698Z,2.15
2022-11-28T04:15:50.757Z,2.14
2022-11-28T04:16:53.993Z,2.14
2022-11-28T04:17:50.718Z,2.14
2022-11-28T04:18:50.687Z,2.12
2022-11-28T04:19:50.657Z,2.12
2022-11-28T04:20:50.765Z,2.10
2022-11-28T04:21:50.611Z,2.04
2022-11-28T04:22:50.594Z,2.04
2022-11-28T04:23:50.579Z,2.01
2022-11-28T04:24:50.647Z,2.01
2022-11-28T04:25:50.562Z,2.00
2022-11-28T04:26:50.551Z,1.99
2022-11-28T04:27:50.564Z,1.99
2022-11-28T04:28:50.539Z,1.97
2022-11-28T04:29:50.596Z,1.95
2022-11-28T04:30:50.521Z,1.95
2022-11-28T04:31:50.616Z,1.95
2022-11-28T04:32:50.531Z,1.95
2022-11-28T04:33:50.523Z,1.95
2022-11-28T04:34:50.463Z,1.92
2022-11-28T04:35:50.462Z,1.91
2022-11-28T04:36:50.571Z,1.89
2022-11-28T04:37:50.468Z,1.89
2022-11-28T04:38:50.454Z,1.87
2022-11-28T04:39:50.414Z,1.85
2022-11-28T04:40:50.409Z,1.84
2022-11-28T04:41:50.400Z,1.84
2022-11-28T04:42:52.993Z,1.84
2022-11-28T04:43:50.383Z,1.84
2022-11-28T04:44:50.424Z,1.82
2022-11-28T04:45:50.434Z,1.82
2022-11-28T04:46:50.484Z,1.80
2022-11-28T04:47:50.362Z,1.80
2022-11-28T04:48:50.323Z,1.77
2022-11-28T04:49:50.314Z,1.77
2022-11-28T04:50:50.318Z,1.81
2022-11-28T04:51:50.397Z,1.81
2022-11-28T04:52:50.419Z,1.81
2022-11-28T04:53:50.298Z,1.85
2022-11-28T04:54:50.280Z,1.89
2022-11-28T04:55:50.291Z,1.85
2022-11-28T04:56:50.310Z,1.89
2022-11-28T04:57:55.746Z,1.89
2022-11-28T04:58:51.235Z,1.89
2022-11-28T04:59:50.242Z,1.87
2022-11-28T05:00:50.277Z,1.82
2022-11-28T05:01:50.272Z,1.80
2022-11-28T05:02:50.195Z,1.77
2022-11-28T05:03:50.164Z,1.77
2022-11-28T05:04:50.154Z,1.74
2022-11-28T05:05:50.174Z,1.71
2022-11-28T05:06:50.133Z,1.67
2022-11-28T05:07:50.184Z,1.64
2022-11-28T05:08:50.671Z,1.67
2022-11-28T05:09:50.103Z,1.64
2022-11-28T05:10:50.090Z,1.64
2022-11-28T05:11:50.178Z,1.66
2022-11-28T05:12:50.096Z,1.66
2022-11-28T05:13:50.051Z,1.63
2022-11-28T05:14:50.070Z,1.63
2022-11-28T05:15:50.038Z,1.62
2022-11-28T05:16:50.172Z,1.60
2022-11-28T05:17:54.554Z,1.60
2022-11-28T05:18:50.054Z,1.63
2022-11-28T05:19:50.004Z,1.66
2022-11-28T05:20:49.989Z,1.64
2022-11-28T05:21:49.976Z,1.66
2022-11-28T05:22:50.015Z,1.67
2022-11-28T05:23:49.950Z,1.71
2022-11-28T05:24:50.053Z,1.73
2022-11-28T05:25:49.940Z,1.74
2022-11-28T05:26:49.939Z,1.77
2022-11-28T05:27:49.984Z,1.78
2022-11-28T05:28:49.918Z,1.80
2022-11-28T05:29:52.317Z,1.80
2022-11-28T05:30:49.889Z,1.82
2022-11-28T05:31:49.946Z,1.81
2022-11-28T05:32:49.867Z,1.81
2022-11-28T05:33:49.845Z,1.81
2022-11-28T05:34:49.853Z,1.82
2022-11-28T05:35:49.923Z,1.82
2022-11-28T05:36:49.804Z,1.82
2022-11-28T05:37:49.804Z,1.84
2022-11-28T05:38:49.784Z,1.87
2022-11-28T05:39:49.821Z,1.85
2022-11-28T05:40:49.893Z,1.85
2022-11-28T05:41:49.770Z,1.84
2022-11-28T05:42:49.746Z,1.84
2022-11-28T05:43:49.747Z,1.85
2022-11-28T05:44:49.741Z,1.84
2022-11-28T05:45:49.749Z,1.87
2022-11-28T05:46:49.734Z,1.92
2022-11-28T05:47:49.692Z,1.93
2022-11-28T05:48:49.696Z,1.97
2022-11-28T05:49:49.678Z,1.99
2022-11-28T05:50:49.662Z,1.99
2022-11-28T05:51:49.676Z,1.99
2022-11-28T05:52:49.656Z,2.01
2022-11-28T05:53:49.636Z,2.00
2022-11-28T05:54:49.616Z,2.00
2022-11-28T05:55:49.611Z,1.99
2022-11-28T05:56:49.785Z,2.01
2022-11-28T05:57:49.685Z,2.01
2022-11-28T05:58:49.572Z,2.04
2022-11-28T05:59:49.572Z,2.07
2022-11-28T06:00:49.597Z,2.07
2022-11-28T06:01:49.629Z,2.10
2022-11-28T06:02:49.527Z,2.11
2022-11-28T06:03:49.520Z,2.14
2022-11-28T06:04:49.595Z,2.12
2022-11-28T06:05:49.581Z,2.12
2022-11-28T06:06:49.483Z,2.14
2022-11-28T06:07:49.558Z,2.14
2022-11-28T06:08:49.467Z,2.15
2022-11-28T06:09:49.479Z,2.15
2022-11-28T06:10:49.572Z,2.17
2022-11-28T06:11:49.439Z,2.17
2022-11-28T06:12:49.556Z,2.17
2022-11-28T06:13:49.423Z,2.21
2022-11-28T06:14:49.417Z,2.19
2022-11-28T06:15:49.398Z,2.19
2022-11-28T06:16:49.460Z,2.22
2022-11-28T06:17:49.425Z,2.19
2022-11-28T06:18:49.379Z,2.22
2022-11-28T06:19:49.355Z,2.22
2022-11-28T06:20:49.343Z,2.29
2022-11-28T06:21:49.407Z,2.30
2022-11-28T06:22:49.322Z,2.29
2022-11-28T06:23:49.315Z,2.29
2022-11-28T06:24:49.306Z,2.28
2022-11-28T06:25:49.315Z,2.25
2022-11-28T06:26:49.283Z,2.25
2022-11-28T06:27:49.279Z,2.24
2022-11-28T06:28:49.382Z,2.22
2022-11-28T06:29:49.271Z,2.25
2022-11-28T06:30:49.227Z,2.28
2022-11-28T06:31:49.312Z,2.24
2022-11-28T06:32:49.208Z,2.25
2022-11-28T06:33:49.207Z,2.28
2022-11-28T06:34:49.208Z,2.30
2022-11-28T06:35:49.190Z,2.32
2022-11-28T06:36:49.172Z,2.36
2022-11-28T06:37:49.175Z,2.37
2022-11-28T06:38:49.160Z,2.37
2022-11-28T06:39:49.368Z,2.40
2022-11-28T06:40:49.134Z,2.45
2022-11-28T06:41:49.138Z,2.50
2022-11-28T06:42:49.113Z,2.51
2022-11-28T06:43:49.100Z,2.53
2022-11-28T06:44:49.197Z,2.57
2022-11-28T06:45:49.172Z,2.58
2022-11-28T06:46:49.082Z,2.60
2022-11-28T06:47:49.147Z,2.60
2022-11-28T06:48:49.061Z,2.61
2022-11-28T06:49:49.066Z,2.65
2022-11-28T06:50:49.030Z,2.66
2022-11-28T06:51:49.036Z,2.66
2022-11-28T06:52:49.015Z,2.66
2022-11-28T06:53:49.046Z,2.66
2022-11-28T06:54:48.998Z,2.66
2022-11-28T06:55:48.977Z,2.68
2022-11-28T06:56:48.965Z,2.69
2022-11-28T06:57:49.047Z,2.68
2022-11-28T06:58:56.493Z,2.68
2022-11-28T06:59:48.934Z,2.68
2022-11-28T07:00:49.114Z,2.68
2022-11-28T07:01:48.970Z,2.68
2022-11-28T07:02:49.016Z,2.69
2022-11-28T07:03:48.889Z,2.68
2022-11-28T07:04:48.879Z,2.68
2022-11-28T07:05:48.870Z,2.68
2022-11-28T07:06:48.865Z,2.68
2022-11-28T07:07:54.276Z,2.66
2022-11-28T07:08:49.899Z,2.65
2022-11-28T07:09:48.829Z,2.65
2022-11-28T07:10:48.851Z,2.63
2022-11-28T07:11:48.810Z,2.63
2022-11-28T07:12:48.807Z,2.65
2022-11-28T07:13:48.858Z,2.68
2022-11-28T07:14:48.860Z,2.68
2022-11-28T07:15:48.771Z,2.69
2022-11-28T07:16:48.923Z,2.71
2022-11-28T07:17:48.748Z,2.71
2022-11-28T07:18:48.738Z,2.71
2022-11-28T07:19:54.624Z,2.72
2022-11-28T07:20:49.714Z,2.73
2022-11-28T07:21:48.711Z,2.72
2022-11-28T07:22:48.706Z,2.73
2022-11-28T07:23:48.682Z,2.73
2022-11-28T07:24:49.603Z,2.72
2022-11-28T07:25:48.713Z,2.75
2022-11-28T07:26:48.703Z,2.76
2022-11-28T07:27:48.643Z,2.78
2022-11-28T07:28:48.645Z,2.76
2022-11-28T07:29:48.635Z,2.76
2022-11-28T07:30:48.633Z,2.78
2022-11-28T07:31:48.660Z,2.79
2022-11-28T07:32:49.230Z,2.81
2022-11-28T07:33:48.617Z,2.82
2022-11-28T07:34:50.203Z,2.82
2022-11-28T07:35:48.555Z,2.84
2022-11-28T07:36:48.602Z,2.86
2022-11-28T07:37:48.538Z,2.86
2022-11-28T07:38:48.533Z,2.90
2022-11-28T07:39:48.515Z,2.90
2022-11-28T07:40:48.511Z,2.90
2022-11-28T07:41:48.568Z,2.91
2022-11-28T07:42:48.553Z,2.94
2022-11-28T07:43:48.492Z,2.94
2022-11-28T07:44:48.471Z,2.94
2022-11-28T07:46:00.528Z,2.97
2022-11-28T07:46:49.566Z,3.02
2022-11-28T07:47:48.494Z,3.07
2022-11-28T07:48:48.537Z,3.12
2022-11-28T07:49:48.442Z,3.14
2022-11-28T07:50:48.436Z,3.20
2022-11-28T07:51:48.445Z,3.22
2022-11-28T07:52:48.426Z,3.26
2022-11-28T07:53:48.402Z,3.27
2022-11-28T07:54:48.414Z,3.29
2022-11-28T07:55:48.372Z,3.32
2022-11-28T07:57:49.369Z,3.35
2022-11-28T07:58:48.405Z,3.36
2022-11-28T07:59:48.321Z,3.37
2022-11-28T08:00:48.352Z,3.37
2022-11-28T08:01:48.368Z,3.42
2022-11-28T08:02:48.281Z,3.45
2022-11-28T08:03:48.289Z,3.45
2022-11-28T08:04:52.751Z,3.49
2022-11-28T08:05:49.274Z,3.51
2022-11-28T08:06:48.241Z,3.54
2022-11-28T08:07:48.285Z,3.52
2022-11-28T08:08:48.260Z,3.55
2022-11-28T08:09:48.231Z,3.59
2022-11-28T08:10:48.232Z,3.62
2022-11-28T08:11:48.189Z,3.63
2022-11-28T08:12:48.182Z,3.66
2022-11-28T08:13:48.213Z,3.70
2022-11-28T08:14:48.184Z,3.73
2022-11-28T08:15:48.141Z,3.76
2022-11-28T08:16:48.221Z,3.81
2022-11-28T08:17:48.151Z,3.85
2022-11-28T08:18:48.109Z,3.90
2022-11-28T08:19:48.132Z,3.94
2022-11-28T08:20:48.119Z,3.90
2022-11-28T08:21:48.078Z,3.90
2022-11-28T08:22:48.071Z,3.88
2022-11-28T08:23:48.068Z,3.87
2022-11-28T08:24:48.056Z,3.92
2022-11-28T08:25:48.073Z,3.96
2022-11-28T08:26:48.022Z,4.02
2022-11-28T08:27:48.019Z,4.03
2022-11-28T08:28:48.004Z,4.08
2022-11-28T08:29:51.963Z,4.09
2022-11-28T08:30:49.131Z,4.02
2022-11-28T08:31:47.965Z,4.02
2022-11-28T08:32:47.959Z,4.00
2022-11-28T08:33:47.957Z,4.05
2022-11-28T08:34:47.948Z,4.03
2022-11-28T08:35:47.947Z,4.08
2022-11-28T08:36:47.968Z,4.12
2022-11-28T08:37:47.906Z,4.12
2022-11-28T08:39:03.461Z,4.12
2022-11-28T08:39:48.890Z,4.13
2022-11-28T08:40:47.880Z,4.16
2022-11-28T08:41:47.905Z,4.17
2022-11-28T08:42:47.865Z,4.16
2022-11-28T08:43:47.853Z,4.17
2022-11-28T08:44:47.867Z,4.17
2022-11-28T08:45:47.868Z,4.20
2022-11-28T08:46:47.828Z,4.18
2022-11-28T08:47:47.905Z,4.20
2022-11-28T08:48:47.797Z,4.16
2022-11-28T08:49:47.777Z,4.16
2022-11-28T08:50:48.228Z,4.13
2022-11-28T08:51:47.776Z,4.08
2022-11-28T08:52:47.797Z,4.08
2022-11-28T08:53:49.464Z,4.12
2022-11-28T08:54:47.758Z,4.13
2022-11-28T08:55:47.719Z,4.09
2022-11-28T08:56:47.750Z,4.10
2022-11-28T08:57:47.725Z,4.17
2022-11-28T08:58:47.691Z,4.18
2022-11-28T08:59:47.701Z,4.24
2022-11-28T09:00:47.680Z,4.27
2022-11-28T09:01:47.751Z,4.28
2022-11-28T09:02:47.657Z,4.30
2022-11-28T09:03:47.680Z,4.31
2022-11-28T09:04:47.698Z,4.35
2022-11-28T09:05:47.620Z,4.41
2022-11-28T09:06:47.604Z,4.46
2022-11-28T09:07:47.667Z,4.49
2022-11-28T09:08:47.602Z,4.51
2022-11-28T09:09:48.112Z,4.56
2022-11-28T09:10:47.604Z,4.60
2022-11-28T09:11:47.545Z,4.64
2022-11-28T09:12:47.542Z,4.61
2022-11-28T09:13:47.529Z,4.67
2022-11-28T09:14:47.525Z,4.78
2022-11-28T09:15:51.250Z,4.83
2022-11-28T09:16:48.759Z,4.85
2022-11-28T09:17:47.578Z,4.86
2022-11-28T09:18:47.491Z,4.83
2022-11-28T09:19:47.510Z,4.89
2022-11-28T09:20:47.527Z,4.96
2022-11-28T09:21:47.448Z,4.98
2022-11-28T09:22:47.480Z,5.04
2022-11-28T09:23:47.513Z,5.07
2022-11-28T09:24:47.442Z,5.16
2022-11-28T09:25:47.448Z,5.27
2022-11-28T09:26:47.501Z,5.27
2022-11-28T09:27:47.443Z,5.33
2022-11-28T09:28:47.376Z,5.39
2022-11-28T09:29:47.368Z,5.47
2022-11-28T09:30:47.442Z,5.50
2022-11-28T09:31:47.829Z,5.55
2022-11-28T09:32:47.336Z,5.59
2022-11-28T09:33:47.336Z,5.66
2022-11-28T09:34:47.342Z,5.69
2022-11-28T09:35:47.327Z,5.70
2022-11-28T09:36:47.334Z,5.77
2022-11-28T09:37:47.317Z,5.79
2022-11-28T09:38:47.271Z,5.79
2022-11-28T09:40:11.587Z,5.87
2022-11-28T09:40:48.290Z,5.93
2022-11-28T09:41:47.238Z,5.97
2022-11-28T09:42:47.255Z,6.05
2022-11-28T09:43:52.039Z,6.11
2022-11-28T09:44:48.208Z,6.18
2022-11-28T09:45:47.211Z,6.18
2022-11-28T09:46:47.372Z,6.18
2022-11-28T09:47:47.216Z,6.18
2022-11-28T09:48:47.182Z,6.19
2022-11-28T09:49:47.619Z,6.24
2022-11-28T09:50:47.170Z,6.21
2022-11-28T09:51:47.128Z,6.28
2022-11-28T09:52:47.147Z,6.31
2022-11-28T09:53:47.109Z,6.32
2022-11-28T09:54:47.143Z,6.37
2022-11-28T09:55:47.086Z,6.34
2022-11-28T09:56:47.100Z,6.37
2022-11-28T09:57:47.152Z,6.35
2022-11-28T09:58:47.056Z,6.37
2022-11-28T09:59:47.047Z,6.43
2022-11-28T10:00:50.250Z,6.47
2022-11-28T10:01:48.034Z,6.52
2022-11-28T10:02:47.004Z,6.55
2022-11-28T10:03:47.094Z,6.67
2022-11-28T10:04:47.027Z,6.73
2022-11-28T10:05:47.034Z,6.67
2022-11-28T10:06:46.968Z,6.68
2022-11-28T10:07:49.923Z,6.73
2022-11-28T10:08:47.958Z,6.73
2022-11-28T10:09:46.934Z,6.74
2022-11-28T10:10:46.930Z,6.78
2022-11-28T10:11:47.008Z,6.82
2022-11-28T10:12:46.941Z,6.81
2022-11-28T10:14:07.362Z,6.83
2022-11-28T10:14:47.921Z,6.88
2022-11-28T10:15:46.905Z,6.88
2022-11-28T10:16:47.062Z,6.92
2022-11-28T10:17:46.970Z,7.03
2022-11-28T10:18:46.847Z,7.08
2022-11-28T10:19:54.278Z,7.13
2022-11-28T10:20:47.836Z,7.21
2022-11-28T10:21:46.861Z,7.24
2022-11-28T10:22:46.866Z,7.21
2022-11-28T10:23:46.783Z,7.21
2022-11-28T10:24:46.809Z,7.15
2022-11-28T10:25:46.766Z,7.01
2022-11-28T10:26:46.823Z,7.08
2022-11-28T10:27:46.746Z,7.19
2022-11-28T10:28:46.759Z,7.16
2022-11-28T10:29:46.724Z,7.22
2022-11-28T10:30:46.846Z,7.26
2022-11-28T10:31:46.733Z,7.22
2022-11-28T10:32:46.716Z,7.16
2022-11-28T10:33:46.760Z,7.24
2022-11-28T10:34:46.686Z,7.21
2022-11-28T10:35:46.710Z,7.28
2022-11-28T10:36:46.647Z,7.31
2022-11-28T10:37:46.647Z,7.43
2022-11-28T10:38:46.626Z,7.54
2022-11-28T10:39:46.640Z,7.61
2022-11-28T10:40:46.603Z,7.68
2022-11-28T10:41:46.587Z,7.68
2022-11-28T10:42:46.592Z,7.77
2022-11-28T10:43:46.615Z,7.83
2022-11-28T10:44:46.627Z,7.86
2022-11-28T10:45:46.633Z,7.88
2022-11-28T10:46:46.571Z,7.84
2022-11-28T10:47:46.726Z,7.80
2022-11-28T10:48:46.518Z,7.94
2022-11-28T10:49:46.508Z,7.96
2022-11-28T10:50:46.532Z,7.83
2022-11-28T10:51:46.505Z,7.83
2022-11-28T10:52:46.474Z,7.84
2022-11-28T10:53:46.461Z,7.91
2022-11-28T10:54:46.451Z,7.98
2022-11-28T10:55:46.442Z,8.09
2022-11-28T10:56:46.468Z,8.06
2022-11-28T10:57:46.416Z,8.06
2022-11-28T10:58:46.504Z,8.09
2022-11-28T10:59:46.402Z,8.13
2022-11-28T11:00:46.427Z,8.16
2022-11-28T11:01:50.115Z,8.23
2022-11-28T11:02:46.387Z,8.13
2022-11-28T11:03:46.353Z,8.16
2022-11-28T11:04:46.423Z,8.23
2022-11-28T11:05:46.336Z,8.24
2022-11-28T11:07:06.838Z,8.28
2022-11-28T11:07:47.389Z,8.31
2022-11-28T11:08:46.340Z,8.35
2022-11-28T11:09:46.513Z,8.41
2022-11-28T11:10:46.281Z,8.42
2022-11-28T11:11:46.312Z,8.44
2022-11-28T11:12:46.256Z,8.39
2022-11-28T11:13:46.253Z,8.39
2022-11-28T11:14:46.281Z,8.44
2022-11-28T11:15:46.365Z,8.50
2022-11-28T11:16:46.368Z,8.55
2022-11-28T11:17:46.275Z,8.59
2022-11-28T11:18:46.193Z,8.62
2022-11-28T11:19:46.285Z,8.65
2022-11-28T11:20:46.184Z,8.70
2022-11-28T11:21:46.167Z,8.71
2022-11-28T11:22:46.265Z,8.55
2022-11-28T11:23:46.142Z,8.50
2022-11-28T11:24:46.139Z,8.52
2022-11-28T11:25:46.123Z,8.59
2022-11-28T11:26:46.145Z,8.59
2022-11-28T11:27:46.113Z,8.57
2022-11-28T11:28:46.110Z,8.62
2022-11-28T11:29:49.269Z,8.60
2022-11-28T11:30:47.131Z,8.60
2022-11-28T11:31:46.119Z,8.55
2022-11-28T11:32:51.112Z,8.63
2022-11-28T11:33:47.033Z,8.70
2022-11-28T11:34:46.035Z,8.75
2022-11-28T11:35:46.075Z,8.78
2022-11-28T11:36:46.026Z,8.78
2022-11-28T11:37:45.996Z,8.77
2022-11-28T11:38:45.988Z,8.83
2022-11-28T11:39:45.983Z,8.80
2022-11-28T11:40:45.968Z,8.72
2022-11-28T11:41:45.986Z,8.65
2022-11-28T11:42:45.976Z,8.75
2022-11-28T11:43:45.940Z,8.86
2022-11-28T11:44:45.945Z,8.90
2022-11-28T11:45:51.170Z,8.80
2022-11-28T11:46:47.251Z,8.78
2022-11-28T11:47:45.961Z,8.86
2022-11-28T11:48:45.947Z,8.95
2022-11-28T11:49:46.214Z,9.04
2022-11-28T11:50:45.847Z,9.06
2022-11-28T11:51:45.840Z,9.15
2022-11-28T11:52:45.872Z,9.22
2022-11-28T11:53:45.873Z,9.24
2022-11-28T11:54:45.999Z,9.32
2022-11-28T11:55:45.850Z,9.42
2022-11-28T11:56:45.898Z,9.32
2022-11-28T11:57:45.781Z,9.36
2022-11-28T11:58:46.026Z,9.42
2022-11-28T11:59:53.323Z,9.47
2022-11-28T12:00:45.776Z,9.55
2022-11-28T12:01:45.750Z,9.51
2022-11-28T12:02:45.849Z,9.60
2022-11-28T12:03:45.763Z,9.73
2022-11-28T12:04:49.047Z,9.72
2022-11-28T12:06:12.752Z,9.75
2022-11-28T12:06:46.683Z,9.84
2022-11-28T12:07:45.713Z,9.93
2022-11-28T12:08:45.707Z,9.90
2022-11-28T12:09:46.130Z,9.88
2022-11-28T12:10:45.634Z,9.98
2022-11-28T12:12:46.615Z,10.14
2022-11-28T12:13:45.685Z,10.20
2022-11-28T12:14:46.046Z,10.27
2022-11-28T12:15:45.671Z,10.35
2022-11-28T12:16:45.822Z,10.31
2022-11-28T12:18:21.246Z,10.38
2022-11-28T12:18:45.573Z,10.41
2022-11-28T12:19:45.606Z,10.34
2022-11-28T12:20:45.589Z,10.27
2022-11-28T12:21:45.629Z,10.30
2022-11-28T12:22:45.526Z,10.38
2022-11-28T12:23:45.509Z,10.41
2022-11-28T12:24:45.545Z,10.36
2022-11-28T12:25:45.637Z,10.28
2022-11-28T12:26:45.677Z,10.34
2022-11-28T12:27:45.451Z,10.39
2022-11-28T12:28:45.439Z,10.36
2022-11-28T12:29:45.885Z,10.34
2022-11-28T12:30:45.565Z,10.34
2022-11-28T12:31:45.741Z,10.30
2022-11-28T12:32:45.490Z,10.31
2022-11-28T12:33:45.397Z,10.36
2022-11-28T12:34:45.468Z,10.38
2022-11-28T12:35:45.698Z,10.43
2022-11-28T12:36:45.506Z,10.41
2022-11-28T12:38:09.747Z,10.21
2022-11-28T12:38:46.343Z,10.21
2022-11-28T12:39:45.977Z,10.16
2022-11-28T12:40:45.438Z,9.93
2022-11-28T12:41:45.422Z,9.90
2022-11-28T12:42:45.301Z,9.96
2022-11-28T12:43:45.361Z,10.03
2022-11-28T12:44:45.432Z,10.06
2022-11-28T12:45:45.403Z,10.05
2022-11-28T12:46:45.430Z,9.85
2022-11-28T12:47:45.558Z,9.66
2022-11-28T12:48:51.641Z,9.67
2022-11-28T12:49:46.829Z,9.77
2022-11-28T12:50:45.248Z,9.84
2022-11-28T12:51:45.380Z,9.85
2022-11-28T12:52:45.254Z,9.75
2022-11-28T12:53:45.248Z,9.75
2022-11-28T12:54:45.458Z,9.66
2022-11-28T12:55:45.371Z,9.67
2022-11-28T12:56:45.236Z,9.75
2022-11-28T12:57:45.161Z,9.77
2022-11-28T12:58:45.319Z,9.70
2022-11-28T12:59:45.385Z,9.75
2022-11-28T13:00:45.198Z,9.78
2022-11-28T13:01:45.192Z,9.84
2022-11-28T13:02:45.185Z,9.78
2022-11-28T13:03:45.126Z,9.72
2022-11-28T13:04:45.263Z,9.75
2022-11-28T13:05:45.297Z,9.69
2022-11-28T13:06:45.058Z,9.67
2022-11-28T13:07:45.059Z,9.73
2022-11-28T13:08:48.845Z,9.73
2022-11-28T13:09:45.378Z,9.75
2022-11-28T13:10:45.012Z,9.78
2022-11-28T13:11:45.027Z,9.80
2022-11-28T13:12:45.042Z,9.81
2022-11-28T13:13:45.008Z,9.80
2022-11-28T13:14:45.251Z,9.57
2022-11-28T13:15:45.004Z,9.45
2022-11-28T13:16:45.029Z,9.47
2022-11-28T13:17:44.968Z,9.52
2022-11-28T13:18:44.905Z,9.50
2022-11-28T13:19:44.897Z,9.51